Time;durP1;ratioP1;P1;durP2;ratioP2;P2;SDS_P1;SDS_P2;PMS_P1;PMS_P2;Temp;Humidity;BMP_temperature;BMP_pressure;BME280_temperature;BME280_humidity;BME280_pressure;Samples;Min_cycle;Max_cycle;Signal;HPM_P1;HPM_P2
2022/11/01 05:00:14;;;;;;;1999.90;999.90;;;11.10;99.90;;;;;;6106588;23;20010;31
2022/11/01 05:02:39;;;;;;;1999.90;999.90;;;11.10;99.90;;;;;;4993817;28;20228;-76
2022/11/01 05:05:07;;;;;;;1999.90;999.90;;;11.20;99.90;;;;;;4997727;28;20388;-76
2022/11/01 05:07:33;;;;;;;1999.90;999.90;;;11.10;99.90;;;;;;4997638;28;20039;-76
2022/11/01 05:09:59;;;;;;;1999.90;999.90;;;11.10;99.90;;;;;;4996371;28;20031;-77
2022/11/01 05:12:24;;;;;;;1999.90;999.90;;;11.10;99.90;;;;;;4992719;28;20417;-77
2022/11/01 05:14:50;;;;;;;1999.90;999.90;;;11.10;99.90;;;;;;4978612;28;20493;-78
2022/11/01 05:17:15;;;;;;;1999.90;999.90;;;11.10;99.90;;;;;;4978352;28;20038;-78
2022/11/01 05:19:41;;;;;;;1999.90;999.90;;;11.10;99.90;;;;;;4978323;28;20054;-78
2022/11/01 05:22:07;;;;;;;1999.90;999.90;;;11.10;99.90;;;;;;4976312;28;20027;-78
2022/11/01 05:24:32;;;;;;;1999.90;999.90;;;11.10;99.90;;;;;;4976526;28;20041;-78
2022/11/01 05:26:59;;;;;;;1999.90;999.90;;;11.10;99.90;;;;;;4977738;28;20148;-78
2022/11/01 05:29:25;;;;;;;1999.90;999.90;;;11.20;99.90;;;;;;4977954;28;20036;-78
2022/11/01 05:31:51;;;;;;;1999.90;999.90;;;11.20;99.90;;;;;;4976299;28;20038;-78
2022/11/01 05:34:17;;;;;;;1999.90;999.90;;;11.20;99.90;;;;;;4976175;28;20039;-78
2022/11/01 05:36:42;;;;;;;1999.90;999.90;;;11.20;99.90;;;;;;4992189;28;20031;-78
2022/11/01 05:39:08;;;;;;;1999.90;999.90;;;11.20;99.90;;;;;;4976457;28;20501;-78
2022/11/01 05:41:34;;;;;;;1999.90;999.90;;;11.20;99.90;;;;;;4977716;28;20058;-78
2022/11/01 05:43:59;;;;;;;1999.90;999.90;;;11.20;99.90;;;;;;4977774;28;20039;-78
2022/11/01 05:46:25;;;;;;;1999.90;999.90;;;11.20;99.90;;;;;;4977313;28;20039;-78
2022/11/01 05:48:50;;;;;;;1999.90;999.90;;;11.30;99.90;;;;;;4977576;28;20131;-78
2022/11/01 05:51:16;;;;;;;1999.90;999.90;;;11.30;99.90;;;;;;4977165;28;20062;-78
2022/11/01 05:53:41;;;;;;;1999.90;999.90;;;11.40;99.90;;;;;;4976019;28;20067;-78
2022/11/01 05:56:07;;;;;;;1999.90;999.90;;;11.50;99.90;;;;;;4976848;28;20389;-78
2022/11/01 05:58:33;;;;;;;1999.90;999.90;;;11.50;99.90;;;;;;4977536;28;20110;-78
2022/11/01 06:01:05;;;;;;;1999.90;999.90;;;11.50;99.90;;;;;;4975667;28;20050;-78
2022/11/01 06:03:31;;;;;;;1999.90;999.90;;;11.50;99.90;;;;;;4979120;28;20039;-80
2022/11/01 06:05:58;;;;;;;1999.90;999.90;;;11.70;99.90;;;;;;4976089;28;20035;-80
2022/11/01 06:08:24;;;;;;;1999.90;999.90;;;11.80;99.90;;;;;;4978708;28;20501;-78
2022/11/01 06:10:50;;;;;;;1999.90;999.90;;;11.90;99.90;;;;;;4978007;28;20043;-81
2022/11/01 06:13:16;;;;;;;1999.90;999.90;;;11.90;99.90;;;;;;4977450;28;20046;-78
2022/11/01 06:15:41;;;;;;;1999.90;999.90;;;11.80;99.90;;;;;;4976683;28;20046;-78
2022/11/01 06:18:07;;;;;;;1999.90;999.90;;;11.60;99.90;;;;;;4975717;28;20059;-78
2022/11/01 06:20:35;;;;;;;1999.90;999.90;;;11.60;99.90;;;;;;4991643;28;20039;-78
2022/11/01 06:23:06;;;;;;;1999.90;999.90;;;11.70;99.90;;;;;;4975634;28;20031;-78
2022/11/01 06:25:31;;;;;;;1999.90;999.90;;;11.70;99.90;;;;;;4976800;28;20036;-78
2022/11/01 06:27:57;;;;;;;1999.90;999.90;;;11.80;99.90;;;;;;4975416;28;20508;-78
2022/11/01 06:30:23;;;;;;;1999.90;999.90;;;11.70;99.90;;;;;;4975343;28;20035;-78
2022/11/01 06:32:48;;;;;;;1999.90;999.90;;;11.70;99.90;;;;;;4976569;28;20035;-78
2022/11/01 06:35:14;;;;;;;1999.90;999.90;;;11.70;99.90;;;;;;4976748;28;20046;-78
2022/11/01 06:37:39;;;;;;;1999.90;999.90;;;11.70;99.90;;;;;;4976631;28;20027;-78
2022/11/01 06:40:06;;;;;;;1999.90;999.90;;;11.70;99.90;;;;;;4975364;28;20393;-79
2022/11/01 06:42:31;;;;;;;1999.90;999.90;;;11.70;99.90;;;;;;4975677;28;20035;-79
2022/11/01 06:44:57;;;;;;;1999.90;999.90;;;11.70;99.90;;;;;;4977575;28;20444;-77
2022/11/01 06:47:23;;;;;;;1999.90;999.90;;;11.80;99.90;;;;;;4977138;28;20031;-78
2022/11/01 06:49:48;;;;;;;1999.90;999.90;;;11.70;99.90;;;;;;4977028;28;20045;-77
2022/11/01 06:52:14;;;;;;;1999.90;999.90;;;11.80;99.90;;;;;;4975295;28;20054;-78
2022/11/01 06:54:39;;;;;;;1999.90;999.90;;;11.80;99.90;;;;;;4977212;28;20511;-79
2022/11/01 06:57:05;;;;;;;1999.90;999.90;;;11.80;99.90;;;;;;4978421;28;20035;-79
2022/11/01 06:59:30;;;;;;;1999.90;999.90;;;11.90;99.90;;;;;;4976538;28;20392;-79
2022/11/01 07:01:56;;;;;;;1999.90;999.90;;;11.90;99.90;;;;;;4982297;28;20544;-79
2022/11/01 07:04:22;;;;;;;1999.90;999.90;;;12.00;99.90;;;;;;4977155;28;20039;-79
2022/11/01 07:06:47;;;;;;;1999.90;999.90;;;12.10;99.90;;;;;;4979490;28;20039;-79
2022/11/01 07:09:13;;;;;;;1999.90;999.90;;;12.10;99.90;;;;;;4979016;28;20046;-78
2022/11/01 07:11:38;;;;;;;1999.90;999.90;;;12.20;99.90;;;;;;4976729;28;20035;-78
2022/11/01 07:14:04;;;;;;;1999.90;999.90;;;12.20;99.90;;;;;;4993570;28;20031;-79
2022/11/01 07:16:31;;;;;;;1999.90;999.90;;;12.10;99.90;;;;;;4980150;28;20427;-80
2022/11/01 07:18:57;;;;;;;1999.90;999.90;;;12.10;99.90;;;;;;4979322;28;20051;-79
2022/11/01 07:21:23;;;;;;;1999.90;999.90;;;12.10;99.90;;;;;;4980070;28;20105;-79
2022/11/01 07:23:48;;;;;;;1999.90;999.90;;;12.10;99.90;;;;;;4978771;28;20035;-82
2022/11/01 07:26:14;;;;;;;1999.90;999.90;;;12.10;99.90;;;;;;4997698;28;20378;-80
2022/11/01 07:28:40;;;;;;;1999.90;999.90;;;12.20;99.90;;;;;;4978295;28;20045;-80
2022/11/01 07:31:05;;;;;;;1999.90;999.90;;;12.20;99.90;;;;;;4980855;28;20035;-80
2022/11/01 07:33:31;;;;;;;1999.90;999.90;;;12.30;99.90;;;;;;4996080;28;20046;-80
2022/11/01 07:35:57;;;;;;;1999.90;999.90;;;12.40;99.90;;;;;;4966107;28;20394;-81
2022/11/01 07:38:22;;;;;;;1999.90;999.90;;;12.40;99.90;;;;;;4973856;28;20044;-84
2022/11/01 07:40:49;;;;;;;1999.90;999.90;;;12.40;99.90;;;;;;4978462;28;20035;-80
2022/11/01 07:43:16;;;;;;;1999.90;999.90;;;12.50;99.90;;;;;;4959810;28;20123;-79
2022/11/01 07:45:42;;;;;;;1999.90;999.90;;;12.60;99.90;;;;;;4961259;28;20035;-81
2022/11/01 07:48:11;;;;;;;1999.90;999.90;;;12.40;99.90;;;;;;4964665;28;20028;-81
2022/11/01 07:50:38;;;;;;;1999.90;999.90;;;12.50;99.90;;;;;;4973357;28;21061;-82
2022/11/01 07:53:15;;;;;;;1999.90;999.90;;;12.50;99.90;;;;;;4973661;28;20820;-81
2022/11/01 07:55:41;;;;;;;1999.90;999.90;;;12.50;99.90;;;;;;4970547;28;20032;-83
2022/11/01 07:58:07;;;;;;;1999.90;999.90;;;12.60;99.90;;;;;;4961410;28;20537;-82
2022/11/01 08:00:33;;;;;;;1999.90;999.90;;;12.70;99.90;;;;;;4958973;28;20067;-80
2022/11/01 08:03:04;;;;;;;1999.90;999.90;;;12.70;99.90;;;;;;4975648;28;20048;-78
2022/11/01 08:05:30;;;;;;;1999.90;999.90;;;12.80;99.90;;;;;;4959068;28;20880;-80
2022/11/01 08:07:56;;;;;;;1999.90;999.90;;;12.90;99.90;;;;;;4960704;28;20111;-79
2022/11/01 08:10:22;;;;;;;1999.90;999.90;;;12.90;99.90;;;;;;4960032;28;20804;-80
2022/11/01 08:12:47;;;;;;;1999.90;999.90;;;13.20;99.90;;;;;;4961368;28;20038;-82
2022/11/01 08:15:13;;;;;;;1999.90;999.90;;;13.10;99.90;;;;;;4976222;28;20614;-81
2022/11/01 08:17:38;;;;;;;1999.90;999.90;;;13.10;99.90;;;;;;4960482;28;20040;-82
2022/11/01 08:20:05;;;;;;;1999.90;999.90;;;13.20;99.90;;;;;;4959052;28;20066;-81
2022/11/01 08:22:31;;;;;;;1999.90;999.90;;;13.30;99.90;;;;;;4960375;28;20026;-82
2022/11/01 08:24:57;;;;;;;1999.90;999.90;;;13.30;99.90;;;;;;4962045;28;20035;-81
2022/11/01 08:27:23;;;;;;;1999.90;999.90;;;13.40;99.90;;;;;;4963656;28;20036;-82
2022/11/01 08:29:49;;;;;;;1999.90;999.90;;;13.50;99.90;;;;;;4962194;28;20035;-83
2022/11/01 08:32:20;;;;;;;1999.90;999.90;;;13.50;99.90;;;;;;4961182;28;20031;-82
2022/11/01 08:34:46;;;;;;;1999.90;999.90;;;13.70;99.90;;;;;;4961291;28;20033;-82
2022/11/01 08:37:11;;;;;;;1999.90;999.90;;;13.60;99.90;;;;;;4964321;28;20040;-82
2022/11/01 08:39:37;;;;;;;1999.90;999.90;;;13.70;99.90;;;;;;4965121;28;20036;-83
2022/11/01 08:42:04;;;;;;;1999.90;999.90;;;13.80;99.90;;;;;;4979749;28;20036;-82
2022/11/01 08:44:30;;;;;;;1999.90;999.90;;;13.80;99.90;;;;;;4963110;28;20091;-82
2022/11/01 08:46:59;;;;;;;1999.90;999.90;;;13.80;99.90;;;;;;4961449;28;20899;-83
2022/11/01 08:49:25;;;;;;;1999.90;999.90;;;14.00;99.90;;;;;;4962109;28;20035;-83
2022/11/01 08:51:51;;;;;;;1999.90;999.90;;;14.10;99.90;;;;;;4984739;28;20035;-84
2022/11/01 08:54:17;;;;;;;1999.90;999.90;;;14.20;99.90;;;;;;4976363;28;20944;-84
2022/11/01 08:56:42;;;;;;;1999.90;999.90;;;14.30;99.90;;;;;;4987272;28;20023;-82
2022/11/01 08:59:08;;;;;;;1999.90;999.90;;;14.30;99.90;;;;;;4988702;28;20035;-82
2022/11/01 09:01:34;;;;;;;1999.90;999.90;;;14.50;99.90;;;;;;4963987;28;20035;-82
2022/11/01 09:04:00;;;;;;;1999.90;999.90;;;14.50;99.90;;;;;;4965397;28;20497;-79
2022/11/01 09:06:27;;;;;;;1999.90;999.90;;;14.60;99.90;;;;;;4966921;28;20051;-80
2022/11/01 09:08:54;;;;;;;1999.90;999.90;;;14.60;99.90;;;;;;4977836;28;20036;-79
2022/11/01 09:11:21;;;;;;;1999.90;999.90;;;14.80;99.90;;;;;;4977799;28;20035;-80
2022/11/01 09:13:48;;;;;;;1999.90;999.90;;;15.00;99.90;;;;;;4977008;28;20035;-80
2022/11/01 09:16:14;;;;;;;1999.90;999.90;;;15.00;99.90;;;;;;4981163;28;20054;-79
2022/11/01 09:18:39;;;;;;;1999.90;999.90;;;15.20;99.90;;;;;;4978624;28;20031;-81
2022/11/01 09:21:06;;;;;;;1999.90;999.90;;;15.30;99.90;;;;;;4977694;28;20394;-82
2022/11/01 09:23:34;;;;;;;1999.90;999.90;;;15.50;99.90;;;;;;4976980;28;21076;-81
2022/11/01 09:26:05;;;;;;;1999.90;999.90;;;15.60;99.90;;;;;;4976088;28;20043;-83
2022/11/01 09:28:31;;;;;;;1999.90;999.90;;;15.90;99.90;;;;;;4976750;28;20106;-83
2022/11/01 09:31:07;;;;;;;1999.90;999.90;;;16.10;99.90;;;;;;4978278;28;20043;-82
2022/11/01 09:33:33;;;;;;;1999.90;999.90;;;16.10;99.90;;;;;;4979615;28;20126;-82
2022/11/01 09:35:59;;;;;;;1999.90;999.90;;;;;;;;;;4976495;28;20043;-83
2022/11/01 09:38:25;;;;;;;1999.90;999.90;;;16.20;99.90;;;;;;4978482;28;20055;-82
2022/11/01 09:41:26;;;;;;;1999.90;999.90;;;16.30;99.90;;;;;;4974550;28;20560;-83
2022/11/01 09:43:52;;;;;;;1999.90;999.90;;;16.20;99.90;;;;;;4970303;28;21042;-82
2022/11/01 09:46:22;;;;;;;1999.90;999.90;;;16.40;99.90;;;;;;4964067;28;20087;-81
2022/11/01 09:48:48;;;;;;;1999.90;999.90;;;16.90;99.90;;;;;;4963491;28;20039;-80
2022/11/01 09:51:20;;;;;;;1999.90;999.90;;;17.30;99.90;;;;;;4962889;28;20042;-81
2022/11/01 09:53:48;;;;;;;1999.90;999.90;;;17.80;99.90;;;;;;4978588;28;20031;-80
2022/11/01 09:56:21;;;;;;;1999.90;999.90;;;17.70;99.90;;;;;;4968886;28;20071;-81
2022/11/01 09:59:08;;;;;;;1999.90;999.90;;;17.70;99.90;;;;;;4979649;28;20454;-81
2022/11/01 10:01:42;;;;;;;1999.90;999.90;;;17.70;99.90;;;;;;4963436;28;20043;-81
2022/11/01 10:04:43;;;;;;;1999.90;999.90;;;17.50;99.90;;;;;;4963612;28;20094;-81
2022/11/01 10:07:21;;;;;;;1999.90;999.90;;;17.40;99.90;;;;;;4934949;28;20059;-81
2022/11/01 10:10:15;;;;;;;1999.90;999.90;;;17.40;99.90;;;;;;4967704;28;20036;-80
2022/11/01 10:13:03;;;;;;;1999.90;999.90;;;17.40;99.90;;;;;;4965063;28;20043;-80
2022/11/01 10:15:53;;;;;;;1999.90;999.90;;;17.60;99.90;;;;;;4978351;28;20172;-81
2022/11/01 10:18:29;;;;;;;1999.90;999.90;;;17.60;99.90;;;;;;4961679;28;20024;-84
2022/11/01 10:20:59;;;;;;;1999.90;999.90;;;17.60;99.90;;;;;;4961031;28;20114;-80
2022/11/01 10:23:41;;;;;;;1999.90;999.90;;;17.60;99.90;;;;;;4961044;28;20042;-82
2022/11/01 10:26:10;;;;;;;1999.90;999.90;;;17.60;99.90;;;;;;4963449;28;20035;-82
2022/11/01 10:28:56;;;;;;;1999.90;999.90;;;17.40;99.90;;;;;;4962870;28;20040;-82
2022/11/01 10:31:25;;;;;;;1999.90;999.90;;;17.40;99.90;;;;;;4961853;28;20059;-83
2022/11/01 10:34:01;;;;;;;1999.90;999.90;;;17.20;99.90;;;;;;4961710;28;20528;-81
2022/11/01 10:36:33;;;;;;;1999.90;999.90;;;17.20;99.90;;;;;;4962687;28;20040;-83
2022/11/01 10:39:24;;;;;;;1999.90;999.90;;;17.30;99.90;;;;;;4961701;28;20063;-82
2022/11/01 10:41:51;;;;;;;1999.90;999.90;;;17.20;99.90;;;;;;4976489;28;20036;-82
2022/11/01 10:44:28;;;;;;;1999.90;999.90;;;17.10;99.90;;;;;;4976629;28;20943;-82
2022/11/01 10:46:55;;;;;;;1999.90;999.90;;;17.10;99.90;;;;;;4980668;28;20031;-81
2022/11/01 10:49:30;;;;;;;1999.90;999.90;;;17.30;99.90;;;;;;4963202;28;20040;-82
2022/11/01 10:52:00;;;;;;;1999.90;999.90;;;17.10;99.90;;;;;;4959481;28;20039;-82
2022/11/01 10:54:29;;;;;;;1999.90;999.90;;;17.20;99.90;;;;;;4970919;28;20094;-82
2022/11/01 10:57:05;;;;;;;1999.90;999.90;;;17.20;99.90;;;;;;4975948;28;20581;-80
2022/11/01 10:59:42;;;;;;;1999.90;999.90;;;17.20;99.90;;;;;;4960193;28;20039;-81
2022/11/01 11:02:22;;;;;;;1999.90;999.90;;;17.20;99.90;;;;;;4959698;28;20046;-82
2022/11/01 11:04:48;;;;;;;1999.90;999.90;;;17.10;99.90;;;;;;4967371;28;20031;-81
2022/11/01 11:07:16;;;;;;;1999.90;999.90;;;17.00;99.90;;;;;;4980504;28;20023;-81
2022/11/01 11:09:42;;;;;;;1999.90;999.90;;;16.90;99.90;;;;;;4981512;28;20043;-81
2022/11/01 11:12:17;;;;;;;1999.90;999.90;;;16.90;99.90;;;;;;4985428;28;20031;-82
2022/11/01 11:14:49;;;;;;;1999.90;999.90;;;16.90;99.90;;;;;;4985787;28;20930;-82
2022/11/01 11:17:36;;;;;;;1999.90;999.90;;;16.90;99.90;;;;;;4981440;28;20114;-83
2022/11/01 11:20:06;;;;;;;1999.90;999.90;;;16.80;99.90;;;;;;4982143;28;20042;-83
2022/11/01 11:22:38;;;;;;;1999.90;999.90;;;16.80;99.90;;;;;;4979164;28;20035;-83
2022/11/01 11:25:05;;;;;;;1999.90;999.90;;;16.70;99.90;;;;;;4995570;28;20039;-82
2022/11/01 11:27:34;;;;;;;1999.90;999.90;;;16.70;99.90;;;;;;4995150;28;20066;-83
2022/11/01 11:30:07;;;;;;;1999.90;999.90;;;16.80;99.90;;;;;;4994391;28;20043;-80
2022/11/01 11:32:37;;;;;;;1999.90;999.90;;;16.80;99.90;;;;;;4992890;28;20058;-82
2022/11/01 11:35:23;;;;;;;1999.90;999.90;;;16.70;99.90;;;;;;4978182;28;20094;-81
2022/11/01 11:37:56;;;;;;;1999.90;999.90;;;16.90;99.90;;;;;;4978696;28;20028;-81
2022/11/01 11:40:26;;;;;;;1999.90;999.90;;;17.30;99.90;;;;;;4993491;28;20587;-81
2022/11/01 11:42:54;;;;;;;1999.90;999.90;;;17.20;99.90;;;;;;4979115;28;20026;-83
2022/11/01 11:45:22;;;;;;;1999.90;999.90;;;17.10;99.90;;;;;;4993820;28;20039;-81
2022/11/01 11:47:47;;;;;;;1999.90;999.90;;;17.20;99.90;;;;;;4979772;28;20031;-83
2022/11/01 11:50:22;;;;;;;1999.90;999.90;;;17.10;99.90;;;;;;4979461;28;20113;-82
2022/11/01 11:53:05;;;;;;;1999.90;999.90;;;17.00;99.90;;;;;;4977797;28;20822;-83
2022/11/01 11:55:42;;;;;;;1999.90;999.90;;;16.90;99.90;;;;;;4977944;28;20044;-83
2022/11/01 11:58:26;;;;;;;1999.90;999.90;;;16.80;99.90;;;;;;4978755;28;20573;-81
2022/11/01 12:01:00;;;;;;;1999.90;999.90;;;16.70;99.90;;;;;;4980427;28;20039;-82
2022/11/01 12:03:26;;;;;;;1999.90;999.90;;;16.70;99.90;;;;;;4981086;28;20038;-85
2022/11/01 12:06:05;;;;;;;1999.90;999.90;;;16.70;99.90;;;;;;4980061;28;20111;-83
2022/11/01 12:08:55;;;;;;;1999.90;999.90;;;16.20;99.90;;;;;;4989767;28;20486;-83
2022/11/01 12:11:22;;;;;;;1999.90;999.90;;;16.40;99.90;;;;;;4980425;28;20036;-85
2022/11/01 12:14:16;;;;;;;1999.90;999.90;;;16.50;99.90;;;;;;4979165;28;20104;-81
2022/11/01 12:16:42;;;;;;;1999.90;999.90;;;16.30;99.90;;;;;;4977213;28;20936;-85
2022/11/01 12:19:24;;;;;;;1999.90;999.90;;;16.50;99.90;;;;;;4977260;28;20067;-82
2022/11/01 12:21:50;;;;;;;1999.90;999.90;;;16.60;99.90;;;;;;4957775;28;20861;-85
2022/11/01 12:24:45;;;;;;;1999.90;999.90;;;16.80;99.90;;;;;;4957044;28;20075;-81
2022/11/01 12:27:18;;;;;;;1999.90;999.90;;;16.60;99.90;;;;;;4956711;28;20390;-79
2022/11/01 12:29:51;;;;;;;1999.90;999.90;;;16.50;99.90;;;;;;4957611;28;20047;-81
2022/11/01 12:32:23;;;;;;;1999.90;999.90;;;16.70;99.90;;;;;;4955840;28;20043;-79
2022/11/01 12:34:52;;;;;;;1999.90;999.90;;;16.60;99.90;;;;;;4958009;28;20040;-80
2022/11/01 12:37:27;;;;;;;1999.90;999.90;;;16.80;99.90;;;;;;4957141;28;20028;-79
2022/11/01 12:40:11;;;;;;;1999.90;999.90;;;17.10;99.90;;;;;;4971489;28;20484;-79
2022/11/01 12:42:42;;;;;;;1999.90;999.90;;;17.20;99.90;;;;;;4955452;28;20168;-80
2022/11/01 12:45:21;;;;;;;1999.90;999.90;;;17.40;99.90;;;;;;4958542;28;20067;-81
2022/11/01 12:47:51;;;;;;;1999.90;999.90;;;17.30;99.90;;;;;;4958165;28;20151;-81
2022/11/01 12:50:20;;;;;;;1999.90;999.90;;;17.20;99.90;;;;;;4960363;28;20606;-81
2022/11/01 12:52:49;;;;;;;1999.90;999.90;;;17.30;99.90;;;;;;4966114;28;20036;-81
2022/11/01 12:55:30;;;;;;;1999.90;999.90;;;17.40;99.90;;;;;;4963507;28;20046;-81
2022/11/01 12:57:55;;;;;;;1999.90;999.90;;;17.40;99.90;;;;;;4959192;28;20131;-81
2022/11/01 13:00:25;;;;;;;1999.90;999.90;;;17.40;99.90;;;;;;4960502;28;20123;-81
2022/11/01 13:02:54;;;;;;;1999.90;999.90;;;17.10;99.90;;;;;;4960748;28;20087;-80
2022/11/01 13:05:48;;;;;;;1999.90;999.90;;;17.10;99.90;;;;;;4962290;28;20036;-80
2022/11/01 13:08:32;;;;;;;1999.90;999.90;;;17.20;99.90;;;;;;4963895;28;20066;-80
2022/11/01 13:11:13;;;;;;;1999.90;999.90;;;17.30;99.90;;;;;;4963608;28;20040;-80
2022/11/01 13:13:52;;;;;;;1999.90;999.90;;;17.30;99.90;;;;;;4963747;28;20055;-81
2022/11/01 13:16:31;;;;;;;1999.90;999.90;;;17.20;99.90;;;;;;4963705;28;20039;-81
2022/11/01 13:19:03;;;;;;;1999.90;999.90;;;17.00;99.90;;;;;;4963668;28;20031;-81
2022/11/01 13:21:48;;;;;;;1999.90;999.90;;;16.80;99.90;;;;;;4978006;28;20040;-81
2022/11/01 13:25:11;;;;;;;1999.90;999.90;;;16.70;99.90;;;;;;4962021;28;20042;-81
2022/11/01 13:27:40;;;;;;;1999.90;999.90;;;16.60;99.90;;;;;;4921953;29;20033;-80
2022/11/01 13:30:16;;;;;;;1999.90;999.90;;;16.80;99.90;;;;;;4960778;28;20046;-79
2022/11/01 13:32:51;;;;;;;1999.90;999.90;;;16.70;99.90;;;;;;4959591;28;20090;-79
2022/11/01 13:35:43;;;;;;;1999.90;999.90;;;16.80;99.90;;;;;;4961252;28;20502;-79
2022/11/01 13:38:18;;;;;;;1999.90;999.90;;;16.80;99.90;;;;;;4959929;28;20087;-80
2022/11/01 13:41:18;;;;;;;1999.90;999.90;;;17.00;99.90;;;;;;4959539;28;20042;-79
2022/11/01 13:43:55;;;;;;;1999.90;999.90;;;17.10;99.90;;;;;;4960231;28;20043;-79
2022/11/01 13:46:48;;;;;;;1999.90;999.90;;;17.10;99.90;;;;;;4976431;28;20090;-79
2022/11/01 13:49:29;;;;;;;1999.90;999.90;;;17.10;99.90;;;;;;4962713;28;20028;-80
2022/11/01 13:52:10;;;;;;;1999.90;999.90;;;16.90;99.90;;;;;;4967987;28;20048;-79
2022/11/01 13:54:58;;;;;;;1999.90;999.90;;;16.80;99.90;;;;;;4964378;28;20068;-80
2022/11/01 13:57:26;;;;;;;1999.90;999.90;;;16.60;99.90;;;;;;4965638;28;20035;-79
2022/11/01 14:00:02;;;;;;;1999.90;999.90;;;16.50;99.90;;;;;;4964782;28;20036;-79
2022/11/01 14:02:51;;;;;;;1999.90;999.90;;;16.50;99.90;;;;;;4963957;28;20040;-80
2022/11/01 14:05:17;;;;;;;1999.90;999.90;;;16.50;99.90;;;;;;4962526;28;20043;-79
2022/11/01 14:07:42;;;;;;;1999.90;999.90;;;16.50;99.90;;;;;;4979796;28;20039;-79
2022/11/01 14:10:15;;;;;;;1999.90;999.90;;;16.60;99.90;;;;;;4965122;28;20445;-79
2022/11/01 14:13:05;;;;;;;1999.90;999.90;;;16.60;99.90;;;;;;4962409;28;20043;-80
2022/11/01 14:15:37;;;;;;;1999.90;999.90;;;16.60;99.90;;;;;;4960134;28;20126;-79
2022/11/01 14:18:08;;;;;;;1999.90;999.90;;;16.60;99.90;;;;;;4962011;28;20550;-79
2022/11/01 14:20:45;;;;;;;1999.90;999.90;;;16.60;99.90;;;;;;4962997;28;20032;-79
2022/11/01 14:23:30;;;;;;;1999.90;999.90;;;16.50;99.90;;;;;;4963383;28;20028;-79
2022/11/01 14:26:17;;;;;;;1999.90;999.90;;;16.50;99.90;;;;;;4966090;28;20115;-79
2022/11/01 14:28:48;;;;;;;1999.90;999.90;;;16.40;99.90;;;;;;4966134;28;20526;-79
2022/11/01 14:31:18;;;;;;;1999.90;999.90;;;16.40;99.90;;;;;;4965487;28;20476;-81
2022/11/01 14:33:48;;;;;;;1999.90;999.90;;;16.30;99.90;;;;;;4999569;28;20397;-80
2022/11/01 14:36:15;;;;;;;1999.90;999.90;;;16.30;99.90;;;;;;5000118;28;20038;-80
2022/11/01 14:39:05;;;;;;;1999.90;999.90;;;16.30;99.90;;;;;;4981287;28;20126;-82
2022/11/01 14:41:35;;;;;;;1999.90;999.90;;;16.30;99.90;;;;;;4976964;28;20038;-79
2022/11/01 14:44:17;;;;;;;1999.90;999.90;;;16.30;99.90;;;;;;4980501;28;20061;-81
2022/11/01 14:46:47;;;;;;;1999.90;999.90;;;16.30;99.90;;;;;;4982457;28;20078;-82
2022/11/01 14:49:39;;;;;;;1999.90;999.90;;;16.30;99.90;;;;;;4987508;28;20023;-83
2022/11/01 14:52:08;;;;;;;1999.90;999.90;;;16.20;99.90;;;;;;4981037;28;20420;-81
2022/11/01 14:54:43;;;;;;;1999.90;999.90;;;15.90;99.90;;;;;;4984577;28;20133;-80
2022/11/01 14:57:35;;;;;;;1999.90;999.90;;;15.90;99.90;;;;;;4986914;28;20051;-81
2022/11/01 15:00:21;;;;;;;1999.90;999.90;;;15.70;99.90;;;;;;4996760;28;20047;-80
2022/11/01 15:02:51;;;;;;;1999.90;999.90;;;15.70;99.90;;;;;;4988476;28;20035;-81
2022/11/01 15:05:16;;;;;;;1999.90;999.90;;;15.60;99.90;;;;;;4988950;28;20045;-80
2022/11/01 15:07:47;;;;;;;1999.90;999.90;;;15.70;99.90;;;;;;4985283;28;20035;-81
2022/11/01 15:10:14;;;;;;;1999.90;999.90;;;15.70;99.90;;;;;;4984373;28;20039;-81
2022/11/01 15:12:56;;;;;;;1999.90;999.90;;;15.70;99.90;;;;;;4984717;28;20035;-81
2022/11/01 15:15:32;;;;;;;1999.90;999.90;;;15.60;99.90;;;;;;4984953;28;20039;-83
2022/11/01 15:18:01;;;;;;;1999.90;999.90;;;15.50;99.90;;;;;;4980704;28;20042;-81
2022/11/01 15:20:37;;;;;;;1999.90;999.90;;;15.50;99.90;;;;;;4983199;28;21157;-82
2022/11/01 15:23:06;;;;;;;1999.90;999.90;;;15.60;99.90;;;;;;4985201;28;20099;-81
2022/11/01 15:25:32;;;;;;;1999.90;999.90;;;15.60;99.90;;;;;;4981893;28;20043;-82
2022/11/01 15:27:57;;;;;;;1999.90;999.90;;;15.50;99.90;;;;;;4988290;28;20037;-83
2022/11/01 15:30:29;;;;;;;1999.90;999.90;;;15.40;99.90;;;;;;4992857;28;20039;-83
2022/11/01 15:33:18;;;;;;;1999.90;999.90;;;15.40;99.90;;;;;;4995994;28;20027;-82
2022/11/01 15:35:58;;;;;;;1999.90;999.90;;;15.30;99.90;;;;;;4994211;28;20579;-83
2022/11/01 15:38:26;;;;;;;1999.90;999.90;;;15.20;99.90;;;;;;4985100;28;20036;-82
2022/11/01 15:40:52;;;;;;;1999.90;999.90;;;15.00;99.90;;;;;;4979171;28;20028;-82
2022/11/01 15:43:23;;;;;;;1999.90;999.90;;;15.00;99.90;;;;;;4979300;28;20054;-82
2022/11/01 15:46:07;;;;;;;1999.90;999.90;;;14.80;99.90;;;;;;4992102;28;20130;-82
2022/11/01 15:48:36;;;;;;;1999.90;999.90;;;14.80;99.90;;;;;;4975596;28;20190;-82
2022/11/01 15:51:05;;;;;;;1999.90;999.90;;;14.70;99.90;;;;;;4960610;28;20521;-82
2022/11/01 15:53:34;;;;;;;1999.90;999.90;;;14.60;99.90;;;;;;4977565;28;20490;-82
2022/11/01 15:56:09;;;;;;;1999.90;999.90;;;14.60;99.90;;;;;;4978151;28;20035;-79
2022/11/01 15:58:47;;;;;;;1999.90;999.90;;;14.70;99.90;;;;;;4982409;28;20031;-82
2022/11/01 16:01:17;;;;;;;1999.90;999.90;;;14.60;99.90;;;;;;4979902;28;20047;-82
2022/11/01 16:03:55;;;;;;;1999.90;999.90;;;14.50;99.90;;;;;;4981680;28;20114;-82
2022/11/01 16:06:38;;;;;;;1999.90;999.90;;;14.30;99.90;;;;;;4980291;28;20032;-81
2022/11/01 16:09:12;;;;;;;1999.90;999.90;;;14.10;99.90;;;;;;4980448;28;20031;-81
2022/11/01 16:11:38;;;;;;;1999.90;999.90;;;13.80;99.90;;;;;;4980860;28;20067;-81
2022/11/01 16:14:28;;;;;;;1999.90;999.90;;;13.80;99.90;;;;;;4981642;28;20035;-82
2022/11/01 16:16:57;;;;;;;1999.90;999.90;;;13.60;99.90;;;;;;4991216;28;20047;-82
2022/11/01 16:19:47;;;;;;;1999.90;999.90;;;13.50;99.90;;;;;;4978821;28;20032;-82
2022/11/01 16:22:40;;;;;;;1999.90;999.90;;;13.40;99.90;;;;;;4981041;28;20031;-82
2022/11/01 16:25:06;;;;;;;1999.90;999.90;;;13.40;99.90;;;;;;4973948;28;20159;-82
2022/11/01 16:27:34;;;;;;;1999.90;999.90;;;13.40;99.90;;;;;;4976314;28;20155;-81
2022/11/01 16:30:07;;;;;;;1999.90;999.90;;;13.50;99.90;;;;;;4973711;28;20064;-82
2022/11/01 16:32:34;;;;;;;1999.90;999.90;;;13.60;99.90;;;;;;4968529;28;20059;-81
2022/11/01 16:35:36;;;;;;;1999.90;999.90;;;13.50;99.90;;;;;;4968641;28;20040;-81
2022/11/01 16:38:02;;;;;;;1999.90;999.90;;;13.40;99.90;;;;;;4982988;28;20063;-80
2022/11/01 16:40:30;;;;;;;1999.90;999.90;;;13.30;99.90;;;;;;4981697;28;20039;-81
2022/11/01 16:42:57;;;;;;;1999.90;999.90;;;13.20;99.90;;;;;;4978418;28;20490;-78
2022/11/01 16:45:23;;;;;;;1999.90;999.90;;;13.10;99.90;;;;;;4979460;28;20039;-80
2022/11/01 16:47:49;;;;;;;1999.90;999.90;;;13.00;99.90;;;;;;4981907;28;20212;-78
2022/11/01 16:50:17;;;;;;;1999.90;999.90;;;12.90;99.90;;;;;;4995277;28;20070;-79
2022/11/01 16:52:42;;;;;;;1999.90;999.90;;;12.70;99.90;;;;;;4978156;28;20091;-78
2022/11/01 16:55:10;;;;;;;1999.90;999.90;;;12.60;99.90;;;;;;4977621;28;20132;-78
2022/11/01 16:57:37;;;;;;;1999.90;999.90;;;12.50;99.90;;;;;;4979897;28;20122;-82
2022/11/01 17:00:10;;;;;;;1999.90;999.90;;;12.30;99.90;;;;;;5002447;28;20608;-79
2022/11/01 17:02:37;;;;;;;1999.90;999.90;;;12.30;99.90;;;;;;4984909;28;20043;-78
2022/11/01 17:05:19;;;;;;;1999.90;999.90;;;12.10;99.90;;;;;;4981132;28;20638;-79
2022/11/01 17:07:46;;;;;;;1999.90;999.90;;;12.00;99.90;;;;;;4980788;28;20761;-79
2022/11/01 17:10:21;;;;;;;1999.90;999.90;;;12.00;99.90;;;;;;4981431;28;20220;-80
2022/11/01 17:12:47;;;;;;;1999.90;999.90;;;11.90;99.90;;;;;;4980455;28;20126;-82
2022/11/01 17:15:13;;;;;;;1999.90;999.90;;;11.70;99.90;;;;;;4981340;28;20117;-82
2022/11/01 17:17:42;;;;;;;1999.90;999.90;;;11.70;99.90;;;;;;4981960;28;20144;-83
2022/11/01 17:20:14;;;;;;;1999.90;999.90;;;11.70;99.90;;;;;;4983274;28;20386;-80